Time;durP1;ratioP1;P1;durP2;ratioP2;P2;SDS_P1;SDS_P2;PMS_P1;PMS_P2;Temp;Humidity;BMP_temperature;BMP_pressure;BME280_temperature;BME280_humidity;BME280_pressure;Samples;Min_cycle;Max_cycle;Signal;HPM_P1;HPM_P2
2022/08/14 00:00:14;;;;;;;;;;;;;;;16.68;55.26;99976.81;5064527;28;957;-52
2022/08/14 00:02:39;;;;;;;;;;;;;;;16.66;55.32;99979.03;5070379;28;1004;-51
2022/08/14 00:05:06;;;;;;;;;;;;;;;17.23;56.13;99973.59;5076437;28;1176;-52
2022/08/14 00:07:34;;;;;;;;;;;;;;;17.66;56.16;99960.88;5053163;28;1086;-54
2022/08/14 00:10:00;;;;;;;;;;;;;;;17.22;56.59;99960.16;5077249;28;1127;-52
2022/08/14 00:12:25;;;;;;;;;;;;;;;17.09;56.15;99942.50;5077213;28;1049;-53
2022/08/14 00:14:51;;;;;;;;;;;;;;;16.98;55.87;99939.09;5072376;28;1060;-55
2022/08/14 00:17:16;;;;;;;;;;;;;;;16.98;55.71;99939.09;5076980;28;1902;-55
2022/08/14 00:19:42;;;;;;;;;;;;;;;16.88;55.67;99931.81;5076922;28;1028;-55
2022/08/14 00:22:07;;;;;;;;;;;;;;;16.88;55.22;99941.97;5077112;28;1306;-55
2022/08/14 00:24:33;;;;;;;;;;;;;;;16.79;55.51;99938.22;5076563;28;993;-56
2022/08/14 00:26:58;;;;;;;;;;;;;;;16.77;55.31;99930.28;5075581;28;1064;-56
2022/08/14 00:29:24;;;;;;;;;;;;;;;16.78;55.09;99926.44;5058219;28;1340;-56
2022/08/14 00:31:49;;;;;;;;;;;;;;;16.71;55.02;99924.06;5067689;28;875;-55
2022/08/14 00:34:15;;;;;;;;;;;;;;;16.72;55.08;99933.13;5076671;28;1005;-55
2022/08/14 00:36:40;;;;;;;;;;;;;;;16.65;55.24;99941.72;5076711;28;992;-55
2022/08/14 00:39:06;;;;;;;;;;;;;;;16.89;55.59;99933.44;5071992;28;1980;-56
2022/08/14 00:41:31;;;;;;;;;;;;;;;17.79;56.07;99946.34;5076638;28;969;-56
2022/08/14 00:43:57;;;;;;;;;;;;;;;17.30;56.55;99934.78;5068402;28;1199;-55
2022/08/14 00:46:22;;;;;;;;;;;;;;;17.13;56.24;99942.75;5075301;28;1132;-56
2022/08/14 00:48:48;;;;;;;;;;;;;;;17.02;55.99;99937.38;5076192;28;1238;-55
2022/08/14 00:51:13;;;;;;;;;;;;;;;16.95;55.56;99931.44;5071291;28;1182;-56
2022/08/14 00:53:39;;;;;;;;;;;;;;;16.89;55.43;99938.94;5076065;28;1067;-55
2022/08/14 00:56:05;;;;;;;;;;;;;;;16.87;55.62;99945.81;5070860;28;1073;-56
2022/08/14 00:58:30;;;;;;;;;;;;;;;16.80;55.14;99940.66;5057117;28;1974;-56
2022/08/14 01:00:59;;;;;;;;;;;;;;;16.78;55.28;99934.69;5069645;28;993;-56
2022/08/14 01:03:24;;;;;;;;;;;;;;;16.74;55.14;99942.66;5075269;28;1013;-55
2022/08/14 01:05:50;;;;;;;;;;;;;;;16.73;55.06;99937.47;5076261;28;1048;-56
2022/08/14 01:08:19;;;;;;;;;;;;;;;16.65;55.07;99938.97;5075816;28;933;-56
2022/08/14 01:10:50;;;;;;;;;;;;;;;16.68;55.02;99940.31;5075949;28;1012;-55
2022/08/14 01:13:17;;;;;;;;;;;;;;;16.62;55.16;99942.31;5058918;28;978;-56
2022/08/14 01:15:43;;;;;;;;;;;;;;;16.63;54.98;99941.19;5047488;28;879;-56
2022/08/14 01:21:13;;;;;;;;;;;;;;;16.56;55.04;99938.81;5057734;28;1025;-56
2022/08/14 01:23:46;;;;;;;;;;;;;;;17.67;55.63;99940.50;5073792;28;1081;-56
2022/08/14 01:26:13;;;;;;;;;;;;;;;17.30;56.41;99933.97;5075861;28;949;-56
2022/08/14 01:28:38;;;;;;;;;;;;;;;17.02;56.68;99931.88;5075279;28;982;-56
2022/08/14 01:31:07;;;;;;;;;;;;;;;16.97;56.13;99945.72;5076137;28;1072;-56
2022/08/14 01:33:33;;;;;;;;;;;;;;;16.88;56.00;99942.78;5075962;28;1052;-56
2022/08/14 01:35:59;;;;;;;;;;;;;;;16.85;55.76;99946.09;5072735;28;844;-56
2022/08/14 01:38:33;;;;;;;;;;;;;;;16.83;55.27;99950.25;5075555;28;1992;-56
2022/08/14 01:41:02;;;;;;;;;;;;;;;16.73;55.34;99941.06;5062976;28;970;-56
2022/08/14 01:43:29;;;;;;;;;;;;;;;16.72;55.06;99949.59;5071659;28;1056;-56
2022/08/14 01:45:56;;;;;;;;;;;;;;;16.65;55.22;99935.38;5070908;28;1017;-56
2022/08/14 01:48:22;;;;;;;;;;;;;;;16.61;55.20;99940.66;5065659;28;986;-55
2022/08/14 01:50:48;;;;;;;;;;;;;;;16.65;54.86;99947.19;5072106;28;1112;-55
2022/08/14 01:53:14;;;;;;;;;;;;;;;16.60;54.86;99955.50;5074864;28;1077;-55
2022/08/14 01:55:39;;;;;;;;;;;;;;;16.57;55.01;99956.88;5075372;28;1187;-57
2022/08/14 01:58:05;;;;;;;;;;;;;;;16.54;55.07;99942.97;5076416;28;1901;-56
2022/08/14 02:00:30;;;;;;;;;;;;;;;16.54;54.97;99945.69;5079599;28;1060;-56
2022/08/14 02:02:57;;;;;;;;;;;;;;;17.65;55.62;99938.03;5060868;28;1015;-57
2022/08/14 02:05:28;;;;;;;;;;;;;;;17.21;56.46;99940.13;5079350;28;1056;-57
2022/08/14 02:07:54;;;;;;;;;;;;;;;16.99;56.16;99948.16;5079620;28;1046;-56
2022/08/14 02:10:20;;;;;;;;;;;;;;;16.88;56.07;99936.47;5079206;28;997;-57
2022/08/14 02:12:46;;;;;;;;;;;;;;;16.84;55.80;99941.72;5079362;28;1032;-57
2022/08/14 02:15:11;;;;;;;;;;;;;;;16.79;55.59;99939.06;5079211;28;1431;-57
2022/08/14 02:17:37;;;;;;;;;;;;;;;16.72;55.41;99938.63;5079171;28;1975;-57
2022/08/14 02:20:02;;;;;;;;;;;;;;;16.69;55.17;99929.03;5079229;28;1206;-57
2022/08/14 02:22:28;;;;;;;;;;;;;;;16.65;55.21;99928.00;5079148;28;1048;-56
2022/08/14 02:24:54;;;;;;;;;;;;;;;16.60;55.18;99920.63;5060620;28;914;-56
2022/08/14 02:27:20;;;;;;;;;;;;;;;16.62;55.01;99925.00;5078519;28;1131;-56
2022/08/14 02:29:46;;;;;;;;;;;;;;;16.59;55.00;99929.16;5071978;28;1397;-56
2022/08/14 02:32:12;;;;;;;;;;;;;;;16.58;54.97;99927.53;5079082;28;1043;-56
2022/08/14 02:34:37;;;;;;;;;;;;;;;16.97;55.74;99929.25;5079093;28;1060;-56
2022/08/14 02:37:04;;;;;;;;;;;;;;;17.81;55.80;99924.03;5078526;28;1410;-56
2022/08/14 02:39:30;;;;;;;;;;;;;;;17.23;56.33;99920.59;5074090;28;1909;-56
2022/08/14 02:41:55;;;;;;;;;;;;;;;17.05;56.14;99925.00;5073509;28;981;-56
2022/08/14 02:44:22;;;;;;;;;;;;;;;16.95;56.11;99920.47;5070641;28;1505;-56
2022/08/14 02:46:47;;;;;;;;;;;;;;;16.87;55.96;99915.59;5062490;28;1045;-55
2022/08/14 02:49:13;;;;;;;;;;;;;;;16.84;55.64;99916.19;5074318;28;1053;-53
2022/08/14 02:51:38;;;;;;;;;;;;;;;16.80;55.50;99926.13;5071310;28;1020;-56
2022/08/14 02:54:05;;;;;;;;;;;;;;;16.72;55.44;99917.47;5061315;28;998;-56
2022/08/14 02:56:31;;;;;;;;;;;;;;;16.68;55.37;99927.38;5067749;28;2760;-55
2022/08/14 02:59:00;;;;;;;;;;;;;;;16.68;55.25;99924.66;5066916;28;1985;-57
2022/08/14 03:01:27;;;;;;;;;;;;;;;16.64;55.29;99922.78;5044832;28;1939;-58
2022/08/14 03:03:54;;;;;;;;;;;;;;;17.72;56.04;99924.72;5072599;28;2163;-57
2022/08/14 03:06:21;;;;;;;;;;;;;;;17.43;56.59;99919.44;5073963;28;1991;-56
2022/08/14 03:08:47;;;;;;;;;;;;;;;17.16;56.24;99920.97;5075683;28;1824;-56
2022/08/14 03:11:12;;;;;;;;;;;;;;;17.03;56.05;99922.53;5063059;28;2208;-57
2022/08/14 03:13:39;;;;;;;;;;;;;;;16.93;56.03;99920.75;5076475;28;961;-56
2022/08/14 03:16:05;;;;;;;;;;;;;;;16.87;55.62;99919.19;5060532;28;1147;-56
2022/08/14 03:18:30;;;;;;;;;;;;;;;16.82;55.52;99915.69;5074734;28;2327;-56
2022/08/14 03:20:56;;;;;;;;;;;;;;;16.80;55.37;99924.19;5074074;28;1092;-56
2022/08/14 03:23:21;;;;;;;;;;;;;;;16.72;55.08;99922.13;5076213;28;1012;-56
2022/08/14 03:25:47;;;;;;;;;;;;;;;16.71;54.87;99920.50;5076397;28;1100;-56
2022/08/14 03:28:12;;;;;;;;;;;;;;;16.65;54.98;99922.50;5070375;28;882;-56
2022/08/14 03:30:38;;;;;;;;;;;;;;;16.67;54.87;99923.00;5053622;28;1072;-56
2022/08/14 03:33:04;;;;;;;;;;;;;;;16.62;54.83;99923.09;5067809;28;1083;-56
2022/08/14 03:35:29;;;;;;;;;;;;;;;16.65;55.42;99928.00;5072537;28;981;-55
2022/08/14 03:37:55;;;;;;;;;;;;;;;17.77;55.88;99921.88;5060979;28;1905;-56
2022/08/14 03:40:21;;;;;;;;;;;;;;;17.23;56.37;99913.16;5070425;28;1887;-56
2022/08/14 03:42:47;;;;;;;;;;;;;;;17.03;56.27;99916.25;5069257;28;1045;-54
2022/08/14 03:45:13;;;;;;;;;;;;;;;16.95;55.87;99914.97;5073082;28;1064;-55
2022/08/14 03:47:41;;;;;;;;;;;;;;;16.91;55.56;99919.41;5071915;28;989;-55
2022/08/14 03:50:08;;;;;;;;;;;;;;;16.80;55.51;99912.41;5072900;28;1107;-50
2022/08/14 03:52:34;;;;;;;;;;;;;;;16.83;55.33;99922.78;5070102;28;988;-55
2022/08/14 03:55:00;;;;;;;;;;;;;;;16.74;55.38;99915.22;5074379;28;1123;-54
2022/08/14 03:57:31;;;;;;;;;;;;;;;16.67;55.45;99923.00;5076219;28;1905;-53
2022/08/14 03:59:56;;;;;;;;;;;;;;;16.69;55.14;99923.53;5058611;28;1147;-54
2022/08/14 04:02:22;;;;;;;;;;;;;;;16.65;55.13;99922.50;5069320;28;957;-56
2022/08/14 04:04:48;;;;;;;;;;;;;;;17.61;55.76;99920.53;5061009;28;986;-55
2022/08/14 04:07:14;;;;;;;;;;;;;;;17.49;56.26;99925.66;5066609;28;950;-56
2022/08/14 04:09:39;;;;;;;;;;;;;;;17.16;56.33;99925.66;5070510;28;1821;-55
2022/08/14 04:12:05;;;;;;;;;;;;;;;17.03;56.10;99921.75;5063661;28;1064;-54
2022/08/14 04:14:30;;;;;;;;;;;;;;;16.96;56.00;99916.59;5055469;28;1092;-54
2022/08/14 04:16:56;;;;;;;;;;;;;;;16.95;55.61;99920.47;5065419;28;1052;-56
2022/08/14 04:19:22;;;;;;;;;;;;;;;16.83;55.63;99923.63;5075683;28;1972;-56
2022/08/14 04:21:49;;;;;;;;;;;;;;;16.80;55.59;99917.91;5075822;28;1115;-54
2022/08/14 04:24:15;;;;;;;;;;;;;;;16.73;55.70;99924.59;5070377;28;942;-56
2022/08/14 04:26:42;;;;;;;;;;;;;;;16.73;55.48;99930.09;5062181;28;993;-53
2022/08/14 04:29:08;;;;;;;;;;;;;;;16.72;55.42;99928.44;5065838;28;942;-53
2022/08/14 04:31:33;;;;;;;;;;;;;;;16.67;55.30;99930.44;5063913;28;1028;-53
2022/08/14 04:34:00;;;;;;;;;;;;;;;16.62;55.42;99934.06;5068472;28;1089;-55
2022/08/14 04:36:25;;;;;;;;;;;;;;;16.60;55.36;99931.59;5073568;28;989;-55
2022/08/14 04:44:19;;;;;;;;;;;;;;;17.48;55.98;99930.38;5070620;28;997;-52
2022/08/14 04:48:11;;;;;;;;;;;;;;;17.49;56.63;99932.00;5072538;28;1060;-51
2022/08/14 04:49:30;;;;;;;;;;;;;;;17.13;56.72;99929.81;5072261;28;1100;-56
2022/08/14 04:51:55;;;;;;;;;;;;;;;17.00;56.57;99934.13;5073909;28;1048;-55
2022/08/14 04:54:21;;;;;;;;;;;;;;;16.90;56.30;99923.28;5069913;28;1098;-55
2022/08/14 04:56:47;;;;;;;;;;;;;;;16.86;56.17;99922.22;5069364;28;997;-53
2022/08/14 04:59:12;;;;;;;;;;;;;;;16.76;55.94;99929.47;5070095;28;1910;-53
2022/08/14 05:01:43;;;;;;;;;;;;;;;16.77;55.69;99933.03;5064943;28;1250;-51
2022/08/14 05:04:09;;;;;;;;;;;;;;;16.73;55.80;99921.00;5065093;28;1008;-53
2022/08/14 05:06:34;;;;;;;;;;;;;;;16.74;55.42;99919.91;5066155;28;1132;-54
2022/08/14 05:09:00;;;;;;;;;;;;;;;16.69;55.57;99923.53;5073268;28;1092;-53
2022/08/14 05:11:25;;;;;;;;;;;;;;;16.67;55.40;99913.97;5071992;28;2337;-52
2022/08/14 05:13:50;;;;;;;;;;;;;;;16.61;55.51;99915.97;5062357;28;1052;-53
2022/08/14 05:16:16;;;;;;;;;;;;;;;16.56;55.39;99907.78;5065840;28;1001;-51
2022/08/14 05:18:42;;;;;;;;;;;;;;;16.61;55.38;99910.47;5070440;28;1966;-53
2022/08/14 05:21:08;;;;;;;;;;;;;;;16.56;55.45;99911.38;5061564;28;966;-52
2022/08/14 05:23:34;;;;;;;;;;;;;;;16.56;55.35;99903.13;5066453;28;1040;-53
2022/08/14 05:26:00;;;;;;;;;;;;;;;16.55;55.20;99906.97;5068795;28;957;-50
2022/08/14 05:28:31;;;;;;;;;;;;;;;16.55;55.15;99908.88;5071156;28;1084;-52
2022/08/14 05:30:58;;;;;;;;;;;;;;;16.85;55.94;99904.91;5053961;28;998;-53
2022/08/14 05:33:27;;;;;;;;;;;;;;;17.78;55.73;99901.53;5072027;28;1016;-54
2022/08/14 05:35:52;;;;;;;;;;;;;;;17.24;56.74;99905.75;5072361;28;1064;-53
2022/08/14 05:38:19;;;;;;;;;;;;;;;17.05;56.72;99895.56;5073492;28;1987;-53
2022/08/14 05:40:45;;;;;;;;;;;;;;;16.96;56.45;99899.28;5064427;28;1950;-54
2022/08/14 05:43:11;;;;;;;;;;;;;;;16.89;56.31;99902.44;5051160;28;974;-53
2022/08/14 05:45:36;;;;;;;;;;;;;;;16.86;55.97;99895.56;5073502;28;1040;-53
2022/08/14 05:48:02;;;;;;;;;;;;;;;18.28;53.31;99900.06;5073019;28;1103;-53
2022/08/14 05:50:28;;;;;;;;;;;;;;;17.35;54.85;99901.72;5074426;28;1113;-53
2022/08/14 05:52:53;;;;;;;;;;;;;;;16.87;53.99;99901.88;5069407;28;1047;-52
2022/08/14 05:55:19;;;;;;;;;;;;;;;16.69;52.90;99901.59;5064866;28;993;-54
2022/08/14 05:58:05;;;;;;;;;;;;;;;17.08;54.07;99892.25;5067839;28;1902;-51
2022/08/14 06:00:32;;;;;;;;;;;;;;;17.40;54.44;99900.81;5070692;28;1151;-50
2022/08/14 06:02:57;;;;;;;;;;;;;;;17.01;53.39;99897.31;5071794;28;1048;-51
2022/08/14 06:05:24;;;;;;;;;;;;;;;16.88;52.50;99898.03;5050318;28;1069;-54
2022/08/14 06:07:49;;;;;;;;;;;;;;;16.82;51.72;99899.22;5074177;28;1364;-52
2022/08/14 06:10:15;;;;;;;;;;;;;;;16.76;51.00;99893.78;5070765;28;2383;-55
2022/08/14 06:12:40;;;;;;;;;;;;;;;16.69;50.83;99896.09;5065934;28;1032;-55
2022/08/14 06:15:06;;;;;;;;;;;;;;;18.02;53.03;99900.56;5070000;28;1029;-56
2022/08/14 06:17:31;;;;;;;;;;;;;;;17.31;53.07;99892.44;5066345;28;1914;-57
2022/08/14 06:19:57;;;;;;;;;;;;;;;17.06;52.43;99886.22;5050015;28;1220;-57
2022/08/14 06:22:23;;;;;;;;;;;;;;;17.00;51.24;99889.34;5071709;28;1009;-56
2022/08/14 06:24:48;;;;;;;;;;;;;;;16.87;51.21;99885.41;5069582;28;1404;-57
2022/08/14 06:27:14;;;;;;;;;;;;;;;16.85;50.67;99885.69;5072720;28;1068;-57
2022/08/14 06:29:39;;;;;;;;;;;;;;;16.83;50.24;99887.09;5064791;28;1179;-57
2022/08/14 06:32:05;;;;;;;;;;;;;;;16.82;49.91;99882.75;5063693;28;1366;-54
2022/08/14 06:34:30;;;;;;;;;;;;;;;17.15;50.76;99880.06;5060801;28;950;-55
2022/08/14 06:36:56;;;;;;;;;;;;;;;17.50;52.05;99880.59;5063950;28;969;-54
2022/08/14 06:39:22;;;;;;;;;;;;;;;17.15;51.66;99880.06;5068443;28;2372;-55
2022/08/14 06:41:47;;;;;;;;;;;;;;;17.02;51.19;99874.22;5062106;28;1207;-53
2022/08/14 06:44:13;;;;;;;;;;;;;;;16.99;50.37;99868.50;5075229;28;1190;-55
2022/08/14 06:46:38;;;;;;;;;;;;;;;16.95;50.13;99876.53;5078155;28;1080;-56
2022/08/14 06:49:04;;;;;;;;;;;;;;;16.91;49.79;99876.31;5047598;28;1105;-55
2022/08/14 06:51:29;;;;;;;;;;;;;;;16.85;49.65;99877.47;5071223;28;1076;-56
2022/08/14 06:53:55;;;;;;;;;;;;;;;16.90;49.10;99874.69;5063179;28;1017;-55
2022/08/14 06:56:22;;;;;;;;;;;;;;;16.89;48.99;99877.72;5067892;28;1072;-56
2022/08/14 06:58:47;;;;;;;;;;;;;;;16.84;48.98;99877.75;5064229;28;2020;-56
2022/08/14 07:06:40;;;;;;;;;;;;;;;17.80;50.14;99873.72;5066937;28;1095;-56
2022/08/14 07:09:08;;;;;;;;;;;;;;;17.28;50.86;99874.63;5067911;28;1061;-54
2022/08/14 07:11:33;;;;;;;;;;;;;;;17.12;50.22;99875.19;5074803;28;2714;-50
2022/08/14 07:13:58;;;;;;;;;;;;;;;16.98;49.91;99878.66;5068014;28;1025;-56
2022/08/14 07:16:24;;;;;;;;;;;;;;;16.99;49.67;99874.00;5071840;28;950;-54
2022/08/14 07:18:50;;;;;;;;;;;;;;;17.00;49.35;99872.88;5060877;28;1913;-54
2022/08/14 07:21:15;;;;;;;;;;;;;;;16.90;49.36;99868.34;5066312;28;1001;-57
2022/08/14 07:23:41;;;;;;;;;;;;;;;16.91;49.15;99870.00;5067968;28;1104;-56
2022/08/14 07:26:06;;;;;;;;;;;;;;;16.93;48.86;99874.06;5065811;28;1072;-56
2022/08/14 07:28:36;;;;;;;;;;;;;;;17.27;49.49;99866.69;5073415;28;1139;-56
2022/08/14 07:31:03;;;;;;;;;;;;;;;17.62;50.28;99872.69;5070662;28;840;-56
2022/08/14 07:33:29;;;;;;;;;;;;;;;17.31;50.28;99867.72;5076059;28;1136;-57
2022/08/14 07:35:55;;;;;;;;;;;;;;;17.20;49.84;99860.75;5070892;28;1032;-56
2022/08/14 07:38:21;;;;;;;;;;;;;;;17.11;49.42;99857.88;5064482;28;1921;-56
2022/08/14 07:40:47;;;;;;;;;;;;;;;17.14;49.07;99856.44;5065278;28;2360;-55
2022/08/14 07:43:12;;;;;;;;;;;;;;;17.03;48.91;99862.13;5070848;28;901;-55
2022/08/14 07:45:39;;;;;;;;;;;;;;;16.96;49.02;99864.44;5070864;28;922;-52
2022/08/14 07:48:05;;;;;;;;;;;;;;;17.03;48.78;99862.13;5058770;28;1091;-54
2022/08/14 07:50:30;;;;;;;;;;;;;;;17.00;48.40;99848.16;5064928;28;1029;-51
2022/08/14 07:52:55;;;;;;;;;;;;;;;17.04;48.30;99846.44;5049049;28;1021;-54
2022/08/14 07:55:21;;;;;;;;;;;;;;;17.02;48.31;99833.00;5068348;28;1214;-54
2022/08/14 07:57:46;;;;;;;;;;;;;;;17.92;49.05;99854.00;5073028;28;1905;-54
2022/08/14 08:00:13;;;;;;;;;;;;;;;17.30;49.87;99846.84;5072869;28;1056;-54
2022/08/14 08:02:40;;;;;;;;;;;;;;;17.22;49.53;99842.03;5075461;28;1075;-54
2022/08/14 08:05:05;;;;;;;;;;;;;;;17.21;49.20;99840.44;5071094;28;1107;-55
2022/08/14 08:07:31;;;;;;;;;;;;;;;17.11;49.08;99835.91;5068996;28;985;-54
2022/08/14 08:09:57;;;;;;;;;;;;;;;17.13;48.82;99832.88;5048068;28;2494;-54
2022/08/14 08:12:23;;;;;;;;;;;;;;;17.09;48.59;99841.69;5060865;28;1001;-53
2022/08/14 08:14:49;;;;;;;;;;;;;;;17.06;48.67;99833.25;5062069;28;974;-57
2022/08/14 08:17:15;;;;;;;;;;;;;;;17.07;48.24;99830.19;5069332;28;996;-54
2022/08/14 08:19:41;;;;;;;;;;;;;;;17.11;48.30;99827.69;5051612;28;1905;-54
2022/08/14 08:22:06;;;;;;;;;;;;;;;17.04;48.42;99825.31;5070666;28;1186;-52
2022/08/14 08:24:34;;;;;;;;;;;;;;;17.05;48.10;99817.88;5074440;28;1024;-56
2022/08/14 08:27:01;;;;;;;;;;;;;;;17.09;47.90;99811.47;5061898;28;1182;-54
2022/08/14 08:29:26;;;;;;;;;;;;;;;17.74;49.07;99820.75;5068011;28;989;-55
2022/08/14 08:31:52;;;;;;;;;;;;;;;15.91;54.45;99815.88;5061434;28;1135;-57
2022/08/14 08:34:18;;;;;;;;;;;;;;;15.97;53.67;99811.97;5066193;28;945;-55
2022/08/14 08:36:43;;;;;;;;;;;;;;;16.70;50.83;99815.34;5070944;28;953;-57
2022/08/14 08:39:09;;;;;;;;;;;;;;;16.80;49.71;99811.63;5067057;28;1910;-57
2022/08/14 08:41:46;;;;;;;;;;;;;;;16.91;49.03;99815.06;5067176;28;2946;-57
2022/08/14 08:44:11;;;;;;;;;;;;;;;16.83;49.25;99813.81;5072605;28;1160;-56
2022/08/14 08:46:36;;;;;;;;;;;;;;;17.33;49.58;99812.47;5071507;28;1032;-55
2022/08/14 08:49:02;;;;;;;;;;;;;;;16.83;53.01;99808.31;5071741;28;982;-56
2022/08/14 08:51:27;;;;;;;;;;;;;;;15.35;56.26;99803.59;5068142;28;1258;-55
2022/08/14 08:53:56;;;;;;;;;;;;;;;16.54;51.52;99794.75;5072130;28;1136;-55
2022/08/14 08:56:31;;;;;;;;;;;;;;;16.76;50.07;99796.91;5067381;28;1281;-57
2022/08/14 08:58:57;;;;;;;;;;;;;;;16.77;49.93;99796.59;5065205;28;1969;-54
2022/08/14 09:01:26;;;;;;;;;;;;;;;17.28;50.60;99794.13;5074244;28;1132;-56
2022/08/14 09:03:52;;;;;;;;;;;;;;;17.55;51.03;99790.59;5075395;28;1053;-55
2022/08/14 09:06:17;;;;;;;;;;;;;;;17.26;51.08;99788.13;5049360;28;1224;-55
2022/08/14 09:08:44;;;;;;;;;;;;;;;17.14;50.34;99785.88;5065625;28;1029;-54
2022/08/14 09:11:11;;;;;;;;;;;;;;;17.15;50.02;99787.47;5069089;28;2690;-54
2022/08/14 09:13:36;;;;;;;;;;;;;;;17.09;49.44;99784.00;5067449;28;1108;-56
2022/08/14 09:16:02;;;;;;;;;;;;;;;17.13;49.09;99783.41;5072071;28;1001;-55
2022/08/14 09:18:27;;;;;;;;;;;;;;;17.06;49.33;99779.13;5069224;28;1901;-55
2022/08/14 09:20:53;;;;;;;;;;;;;;;17.05;49.08;99771.97;5064953;28;1111;-55
2022/08/14 09:23:19;;;;;;;;;;;;;;;17.06;48.95;99767.31;5073046;28;1096;-55
2022/08/14 09:25:46;;;;;;;;;;;;;;;17.09;48.65;99769.47;5075363;28;1127;-56
2022/08/14 09:28:12;;;;;;;;;;;;;;;17.03;48.64;99768.75;5055963;28;973;-58
2022/08/14 09:30:39;;;;;;;;;;;;;;;17.06;48.48;99764.56;5064293;28;1024;-56
2022/08/14 09:33:11;;;;;;;;;;;;;;;17.04;48.57;99753.91;5064572;28;957;-54
2022/08/14 09:36:09;;;;;;;;;;;;;;;16.97;48.40;99750.72;5064568;28;1132;-48
2022/08/14 09:38:54;;;;;;;;;;;;;;;17.04;48.50;99753.91;5007874;28;1902;-55
2022/08/14 09:41:23;;;;;;;;;;;;;;;17.05;48.36;99749.22;5049410;28;2728;-56
2022/08/14 09:44:17;;;;;;;;;;;;;;;17.06;48.22;99751.66;5069362;28;1186;-56
2022/08/14 09:46:52;;;;;;;;;;;;;;;17.03;48.31;99746.75;5056631;28;1210;-55
2022/08/14 09:49:18;;;;;;;;;;;;;;;17.06;48.23;99737.13;5070986;28;1016;-55
2022/08/14 09:51:43;;;;;;;;;;;;;;;17.13;48.03;99733.97;5054698;28;1200;-54
2022/08/14 09:54:11;;;;;;;;;;;;;;;17.10;48.20;99747.19;5053712;28;1195;-56
2022/08/14 09:56:46;;;;;;;;;;;;;;;17.18;48.13;99744.84;5058456;28;1119;-54
2022/08/14 09:59:13;;;;;;;;;;;;;;;17.10;48.06;99757.38;5069181;28;1913;-55
2022/08/14 10:01:39;;;;;;;;;;;;;;;17.21;48.16;99758.81;5060997;28;1020;-56
2022/08/14 10:04:18;;;;;;;;;;;;;;;17.18;48.19;99747.59;5066028;28;1016;-55
2022/08/14 10:06:44;;;;;;;;;;;;;;;17.12;48.23;99749.63;5068961;28;1059;-55
2022/08/14 10:09:10;;;;;;;;;;;;;;;17.16;48.15;99734.16;5065212;28;1002;-55
2022/08/14 10:11:36;;;;;;;;;;;;;;;17.10;48.31;99743.63;5071715;28;2334;-55
2022/08/14 10:14:18;;;;;;;;;;;;;;;17.12;48.40;99744.13;5052990;28;1009;-56
2022/08/14 10:16:44;;;;;;;;;;;;;;;17.18;48.11;99739.34;5063343;28;1088;-56
2022/08/14 10:19:11;;;;;;;;;;;;;;;17.12;48.18;99738.63;5067395;28;1910;-55
2022/08/14 10:21:38;;;;;;;;;;;;;;;17.10;48.38;99740.88;5066675;28;1077;-54
2022/08/14 10:24:07;;;;;;;;;;;;;;;17.08;48.42;99749.44;5072521;28;1052;-53
2022/08/14 10:26:33;;;;;;;;;;;;;;;17.09;48.28;99744.75;5050538;28;1056;-55
2022/08/14 10:29:04;;;;;;;;;;;;;;;17.08;48.40;99741.19;5073824;28;1067;-55
2022/08/14 10:31:31;;;;;;;;;;;;;;;17.04;48.35;99745.66;5067329;28;1135;-53
2022/08/14 10:34:06;;;;;;;;;;;;;;;17.07;48.38;99753.28;5075047;28;1056;-56
2022/08/14 10:36:35;;;;;;;;;;;;;;;17.19;47.86;99760.22;5072975;28;1219;-55
2022/08/14 10:39:05;;;;;;;;;;;;;;;17.12;48.19;99762.56;5075933;28;1988;-56
2022/08/14 10:41:34;;;;;;;;;;;;;;;17.18;47.78;99762.16;5075647;28;2670;-57
2022/08/14 10:44:07;;;;;;;;;;;;;;;17.07;48.29;99778.00;5069132;28;1021;-53
2022/08/14 10:46:52;;;;;;;;;;;;;;;17.14;48.27;99790.53;5062373;28;1009;-54
2022/08/14 10:49:24;;;;;;;;;;;;;;;17.02;48.12;99778.09;5074769;28;993;-57
2022/08/14 10:52:02;;;;;;;;;;;;;;;17.03;48.08;99773.44;5077007;28;1150;-57
2022/08/14 10:54:30;;;;;;;;;;;;;;;17.17;47.52;99762.47;5076626;28;1169;-55
2022/08/14 10:56:56;;;;;;;;;;;;;;;17.16;47.46;99753.41;5063690;28;976;-56
2022/08/14 10:59:22;;;;;;;;;;;;;;;17.03;48.16;99751.44;5066450;28;1921;-54
2022/08/14 11:01:48;;;;;;;;;;;;;;;17.09;48.07;99739.25;5065420;28;1052;-56
2022/08/14 11:04:22;;;;;;;;;;;;;;;17.02;48.05;99723.16;5073194;28;1079;-54
2022/08/14 11:06:53;;;;;;;;;;;;;;;17.01;48.05;99721.56;5068602;28;1002;-52
2022/08/14 11:09:19;;;;;;;;;;;;;;;17.03;48.02;99713.81;5066647;28;2448;-52
2022/08/14 11:11:44;;;;;;;;;;;;;;;17.05;47.99;99717.06;5071697;28;1272;-56
2022/08/14 11:14:10;;;;;;;;;;;;;;;17.01;48.10;99721.56;5060614;28;998;-58
2022/08/14 11:16:38;;;;;;;;;;;;;;;17.10;47.77;99719.72;5071760;28;1064;-57
2022/08/14 11:19:04;;;;;;;;;;;;;;;17.14;48.48;99710.88;5076227;28;1975;-58
2022/08/14 11:21:29;;;;;;;;;;;;;;;17.10;48.50;99707.94;5065562;28;998;-58
2022/08/14 11:23:56;;;;;;;;;;;;;;;17.10;48.17;99703.25;5048255;28;1009;-58
2022/08/14 11:26:23;;;;;;;;;;;;;;;17.09;48.29;99709.84;5072688;28;1004;-59
2022/08/14 11:28:49;;;;;;;;;;;;;;;17.09;48.18;99712.59;5051274;28;1159;-58
2022/08/14 11:31:18;;;;;;;;;;;;;;;17.13;48.10;99721.03;5072886;28;989;-58
2022/08/14 11:33:46;;;;;;;;;;;;;;;17.10;48.83;99718.91;5052914;28;1167;-56
2022/08/14 11:36:12;;;;;;;;;;;;;;;17.08;49.96;99729.38;5068902;28;1020;-58
2022/08/14 11:38:39;;;;;;;;;;;;;;;17.19;49.19;99735.50;5070022;28;1906;-58
2022/08/14 11:41:05;;;;;;;;;;;;;;;17.16;48.90;99739.66;5072752;28;2755;-56
2022/08/14 11:43:30;;;;;;;;;;;;;;;17.09;48.81;99729.06;5070545;28;1100;-56
2022/08/14 11:45:56;;;;;;;;;;;;;;;17.14;48.32;99724.59;5069308;28;1154;-55
2022/08/14 11:48:22;;;;;;;;;;;;;;;17.12;48.42;99719.41;5076655;28;1021;-55
2022/08/14 11:50:48;;;;;;;;;;;;;;;17.06;48.20;99717.88;5076510;28;1084;-55
2022/08/14 11:53:21;;;;;;;;;;;;;;;17.05;48.02;99714.31;5058770;28;867;-55
2022/08/14 11:55:49;;;;;;;;;;;;;;;17.07;47.98;99709.34;5065044;28;1177;-51
2022/08/14 11:58:15;;;;;;;;;;;;;;;17.05;47.84;99711.56;5065943;28;1905;-55
2022/08/14 12:00:52;;;;;;;;;;;;;;;17.00;48.09;99708.94;5072472;28;1071;-54
2022/08/14 12:03:17;;;;;;;;;;;;;;;17.06;47.72;99702.22;5069708;28;1556;-57
2022/08/14 12:05:43;;;;;;;;;;;;;;;17.09;47.72;99698.03;5074174;28;1016;-55
2022/08/14 12:08:09;;;;;;;;;;;;;;;17.08;47.56;99696.41;5070178;28;1163;-56
2022/08/14 12:10:35;;;;;;;;;;;;;;;17.04;47.75;99682.50;5075680;28;2670;-57
2022/08/14 12:13:10;;;;;;;;;;;;;;;17.00;47.64;99677.88;5075628;28;1048;-56
2022/08/14 12:15:36;;;;;;;;;;;;;;;17.99;48.82;99683.84;5064610;28;985;-57
2022/08/14 12:18:02;;;;;;;;;;;;;;;17.48;49.38;99693.19;5063532;28;1953;-57
2022/08/14 12:20:28;;;;;;;;;;;;;;;17.33;49.15;99695.09;5050808;28;1160;-56
2022/08/14 12:22:53;;;;;;;;;;;;;;;17.31;48.82;99693.81;5045370;28;1073;-57
2022/08/14 12:25:21;;;;;;;;;;;;;;;17.36;48.47;99713.75;5064714;28;1059;-57
2022/08/14 12:27:50;;;;;;;;;;;;;;;17.28;48.40;99707.03;5073378;28;996;-51
2022/08/14 12:30:34;;;;;;;;;;;;;;;17.23;48.09;99711.81;5061554;28;1202;-56
2022/08/14 12:33:01;;;;;;;;;;;;;;;17.30;47.76;99706.72;5062724;28;921;-57
2022/08/14 12:35:39;;;;;;;;;;;;;;;17.21;47.76;99709.34;5057252;28;1120;-58
2022/08/14 12:38:04;;;;;;;;;;;;;;;17.21;47.94;99712.09;5067041;28;1955;-58
2022/08/14 12:40:30;;;;;;;;;;;;;;;17.22;47.48;99715.66;5067734;28;2358;-58
2022/08/14 12:43:00;;;;;;;;;;;;;;;17.15;47.91;99716.06;5066621;28;1025;-58
2022/08/14 12:45:30;;;;;;;;;;;;;;;17.13;47.89;99707.31;5051216;28;907;-56
2022/08/14 12:47:58;;;;;;;;;;;;;;;17.21;47.54;99714.84;5075271;28;1194;-57
2022/08/14 12:50:33;;;;;;;;;;;;;;;17.17;47.45;99710.28;5069771;28;1029;-57
2022/08/14 12:52:59;;;;;;;;;;;;;;;17.12;47.52;99715.84;5066912;28;1017;-55
2022/08/14 12:55:24;;;;;;;;;;;;;;;17.14;47.61;99713.59;5068689;28;1017;-56
2022/08/14 12:57:50;;;;;;;;;;;;;;;17.19;47.13;99705.28;5067300;28;1970;-57
2022/08/14 13:00:17;;;;;;;;;;;;;;;17.09;47.61;99700.78;5070116;28;953;-56
2022/08/14 13:02:43;;;;;;;;;;;;;;;17.14;47.18;99702.63;5072914;28;1025;-55
2022/08/14 13:05:10;;;;;;;;;;;;;;;17.11;47.46;99704.06;5071305;28;1140;-56
2022/08/14 13:07:38;;;;;;;;;;;;;;;17.08;47.23;99704.66;5056158;28;1119;-55
2022/08/14 13:10:04;;;;;;;;;;;;;;;17.07;47.37;99712.09;5065722;28;2275;-56
2022/08/14 13:12:30;;;;;;;;;;;;;;;17.10;47.29;99703.25;5075262;28;1457;-55